createdAt,value
2024-01-24T00:01:36.902Z,67.90
2024-01-24T00:04:04.952Z,67.37
2024-01-24T00:06:32.537Z,68.21
2024-01-24T00:09:00.057Z,67.90
2024-01-24T00:11:27.566Z,67.66
2024-01-24T00:13:56.487Z,67.20
2024-01-24T00:16:24.108Z,67.42
2024-01-24T00:18:51.782Z,67.68
2024-01-24T00:21:19.354Z,66.99
2024-01-24T00:23:46.883Z,66.53
2024-01-24T00:26:14.366Z,66.74
2024-01-24T00:28:41.910Z,66.54
2024-01-24T00:31:10.752Z,65.96
2024-01-24T00:33:38.340Z,65.69
2024-01-24T00:36:06.257Z,65.21
2024-01-24T00:38:33.764Z,65.93
2024-01-24T00:41:01.257Z,66.19
2024-01-24T00:43:28.786Z,66.29
2024-01-24T00:45:57.187Z,66.13
2024-01-24T00:48:26.296Z,65.96
2024-01-24T00:50:54.415Z,66.12
2024-01-24T00:53:22.756Z,66.74
2024-01-24T00:55:50.524Z,66.88
2024-01-24T00:58:18.037Z,67.21
2024-01-24T01:00:45.578Z,67.43
2024-01-24T01:03:13.479Z,66.77
2024-01-24T01:05:42.391Z,67.34
2024-01-24T01:08:10.052Z,67.48
2024-01-24T01:10:37.568Z,67.80
2024-01-24T01:13:05.433Z,67.50
2024-01-24T01:15:33.014Z,67.13
2024-01-24T01:18:00.620Z,66.92
2024-01-24T01:20:28.138Z,67.34
2024-01-24T01:22:56.965Z,67.31
2024-01-24T01:25:24.484Z,67.91
2024-01-24T01:27:52.236Z,67.59
2024-01-24T01:30:19.935Z,68.16
2024-01-24T01:32:47.561Z,68.20
2024-01-24T01:35:15.494Z,67.88
2024-01-24T01:37:42.996Z,67.52
2024-01-24T01:40:12.569Z,67.56
2024-01-24T01:42:44.713Z,66.92
2024-01-24T01:45:12.238Z,67.59
2024-01-24T01:47:40.193Z,67.48
2024-01-24T01:50:11.323Z,66.53
2024-01-24T01:52:39.665Z,67.24
2024-01-24T01:55:09.215Z,66.78
2024-01-24T01:57:40.978Z,65.88
2024-01-24T02:00:11.086Z,66.13
2024-01-24T02:02:38.967Z,67.14
2024-01-24T02:05:07.846Z,67.45
2024-01-24T02:07:35.476Z,67.22
2024-01-24T02:10:03.408Z,66.55
2024-01-24T02:12:30.957Z,66.28
2024-01-24T02:14:59.876Z,67.36
2024-01-24T02:17:27.418Z,67.94
2024-01-24T02:19:55.029Z,67.48
2024-01-24T02:22:22.813Z,66.96
2024-01-24T02:24:51.695Z,66.45
2024-01-24T02:27:19.302Z,66.81
2024-01-24T02:29:46.836Z,66.80
2024-01-24T02:32:14.369Z,66.35
2024-01-24T02:34:42.008Z,66.29
2024-01-24T02:37:09.665Z,66.42
2024-01-24T02:39:37.234Z,66.67
2024-01-24T02:42:06.720Z,66.41
2024-01-24T02:44:34.472Z,66.52
2024-01-24T02:47:02.012Z,66.22
2024-01-24T02:49:29.636Z,66.37
2024-01-24T02:52:02.546Z,66.77
2024-01-24T02:54:30.164Z,67.08
2024-01-24T02:56:57.701Z,66.26
2024-01-24T02:59:27.142Z,66.66
2024-01-24T03:01:54.865Z,65.96
2024-01-24T03:04:22.685Z,66.67
2024-01-24T03:06:50.378Z,66.30
2024-01-24T03:09:18.104Z,66.68
2024-01-24T03:11:45.625Z,66.89
2024-01-24T03:14:13.091Z,66.45
2024-01-24T03:16:41.948Z,66.74
2024-01-24T03:19:09.557Z,66.70
2024-01-24T03:21:37.192Z,66.95
2024-01-24T03:24:05.012Z,67.11
2024-01-24T03:26:32.572Z,67.25
2024-01-24T03:29:00.146Z,68.33
2024-01-24T03:31:27.686Z,67.88
2024-01-24T03:33:56.634Z,68.36
2024-01-24T03:36:24.312Z,67.84
2024-01-24T03:38:51.833Z,68.10
2024-01-24T03:41:19.410Z,67.88
2024-01-24T03:43:46.971Z,67.81
2024-01-24T03:46:14.501Z,68.83
2024-01-24T03:48:42.071Z,69.29
2024-01-24T03:51:12.369Z,69.00
2024-01-24T03:53:39.919Z,68.92
2024-01-24T03:56:08.128Z,69.08
2024-01-24T03:58:37.462Z,69.43
2024-01-24T04:01:05.317Z,69.85
2024-01-24T04:03:33.061Z,69.92
2024-01-24T04:06:00.979Z,69.92
2024-01-24T04:08:29.915Z,70.10
2024-01-24T04:10:57.400Z,70.11
2024-01-24T04:13:26.579Z,70.23
2024-01-24T04:15:54.125Z,70.30
2024-01-24T04:18:21.719Z,70.36
2024-01-24T04:20:49.362Z,70.73
2024-01-24T04:23:16.894Z,70.53
2024-01-24T04:25:45.729Z,70.63
2024-01-24T04:28:13.443Z,70.67
2024-01-24T04:30:41.086Z,70.94
2024-01-24T04:33:08.744Z,71.06
2024-01-24T04:35:36.353Z,71.14
2024-01-24T04:38:04.725Z,70.73
2024-01-24T04:40:32.269Z,70.79
2024-01-24T04:43:01.242Z,71.16
2024-01-24T04:45:28.808Z,71.13
2024-01-24T04:47:56.890Z,71.18
2024-01-24T04:50:25.089Z,71.34
2024-01-24T04:52:52.892Z,71.12
2024-01-24T04:55:20.416Z,71.50
2024-01-24T04:57:47.926Z,71.42
2024-01-24T05:00:17.575Z,71.53
2024-01-24T05:02:45.433Z,71.46
2024-01-24T05:05:13.001Z,71.74
2024-01-24T05:07:40.976Z,71.99
2024-01-24T05:10:09.929Z,71.56
2024-01-24T05:12:37.572Z,71.52
2024-01-24T05:15:05.914Z,71.51
2024-01-24T05:17:34.813Z,71.68
2024-01-24T05:20:02.938Z,71.63
2024-01-24T05:22:30.478Z,71.48
2024-01-24T05:24:58.097Z,71.93
2024-01-24T05:27:25.941Z,72.00
2024-01-24T05:29:53.452Z,72.12
2024-01-24T05:32:20.945Z,72.41
2024-01-24T05:34:50.628Z,72.76
2024-01-24T05:37:18.239Z,72.72
2024-01-24T05:39:45.788Z,72.44
2024-01-24T05:42:13.564Z,72.55
2024-01-24T05:44:41.238Z,72.63
2024-01-24T05:47:08.738Z,72.68
2024-01-24T05:49:37.531Z,72.84
2024-01-24T05:52:07.384Z,73.24
2024-01-24T05:54:35.177Z,73.17
2024-01-24T05:57:02.650Z,73.46
2024-01-24T05:59:30.757Z,73.32
2024-01-24T06:01:58.357Z,73.32
2024-01-24T06:04:26.169Z,73.23
2024-01-24T06:06:56.135Z,73.29
2024-01-24T06:09:25.239Z,73.33
2024-01-24T06:11:53.227Z,73.27
2024-01-24T06:14:22.663Z,73.07
2024-01-24T06:16:50.183Z,73.43
2024-01-24T06:19:18.161Z,73.63
2024-01-24T06:21:55.958Z,73.51
2024-01-24T06:24:25.813Z,73.43
2024-01-24T06:26:54.301Z,73.48
2024-01-24T06:30:14.878Z,73.63
2024-01-24T06:32:09.337Z,74.00
2024-01-24T06:34:36.918Z,73.88
2024-01-24T06:37:04.552Z,73.91
2024-01-24T06:39:33.465Z,74.11
2024-01-24T06:42:01.021Z,74.24
2024-01-24T06:44:28.540Z,74.39
2024-01-24T06:46:56.571Z,74.33
2024-01-24T06:49:24.246Z,74.34
2024-01-24T06:51:52.668Z,74.19
2024-01-24T06:54:20.313Z,74.26
2024-01-24T06:56:49.464Z,74.21
2024-01-24T06:59:17.129Z,74.15
2024-01-24T07:01:44.941Z,74.37
2024-01-24T07:04:12.720Z,74.48
2024-01-24T07:06:40.919Z,74.68
2024-01-24T07:09:08.492Z,74.72
2024-01-24T07:11:36.005Z,75.05
2024-01-24T07:14:05.348Z,75.47
2024-01-24T07:16:32.842Z,75.76
2024-01-24T07:19:00.557Z,76.19
2024-01-24T07:21:28.124Z,76.16
2024-01-24T07:23:55.641Z,76.37
2024-01-24T07:26:23.147Z,76.39
2024-01-24T07:28:50.700Z,76.27
2024-01-24T07:31:20.545Z,76.37
2024-01-24T07:33:49.317Z,76.38
2024-01-24T07:36:16.954Z,76.45
2024-01-24T07:38:44.611Z,76.08
2024-01-24T07:41:12.119Z,76.04
2024-01-24T07:43:39.641Z,76.12
2024-01-24T07:46:07.496Z,75.89
2024-01-24T07:48:36.722Z,75.73
2024-01-24T07:51:05.533Z,75.83
2024-01-24T07:53:33.419Z,75.77
2024-01-24T07:56:10.984Z,75.41
2024-01-24T07:58:48.929Z,75.21
2024-01-24T08:01:18.535Z,74.79
2024-01-24T08:03:49.678Z,74.62
2024-01-24T08:06:18.826Z,74.44
2024-01-24T08:08:46.743Z,74.41
2024-01-24T08:11:14.420Z,74.04
2024-01-24T08:13:42.279Z,74.18
2024-01-24T08:16:10.493Z,74.00
2024-01-24T08:18:38.235Z,73.81
2024-01-24T08:21:09.044Z,73.57
2024-01-24T08:23:43.094Z,73.13
2024-01-24T08:26:17.903Z,73.18
2024-01-24T08:28:45.396Z,73.21
2024-01-24T08:31:14.421Z,73.19
2024-01-24T08:33:42.300Z,72.73
2024-01-24T08:36:11.342Z,72.85
2024-01-24T08:38:38.868Z,72.93
2024-01-24T08:41:06.478Z,72.93
2024-01-24T08:43:34.028Z,72.58
2024-01-24T08:46:01.584Z,72.70
2024-01-24T08:48:30.299Z,72.46
2024-01-24T08:50:57.980Z,72.76
2024-01-24T08:53:26.898Z,72.78
2024-01-24T08:55:54.412Z,72.88
2024-01-24T08:58:22.004Z,73.11
2024-01-24T09:00:49.725Z,72.95
2024-01-24T09:03:19.976Z,73.18
2024-01-24T09:05:47.827Z,72.92
2024-01-24T09:08:15.425Z,72.77
2024-01-24T09:10:44.597Z,72.81
2024-01-24T09:13:12.198Z,72.90
2024-01-24T09:15:39.979Z,72.84
2024-01-24T09:18:08.720Z,72.99
2024-01-24T09:20:36.535Z,73.30
2024-01-24T09:23:04.212Z,73.14
2024-01-24T09:25:31.845Z,73.03
2024-01-24T09:28:00.800Z,73.15
2024-01-24T09:30:28.580Z,72.90
2024-01-24T09:32:56.546Z,73.16
2024-01-24T09:35:24.305Z,73.00
2024-01-24T09:37:51.827Z,73.44
2024-01-24T09:40:19.660Z,73.58
2024-01-24T09:42:47.693Z,73.89
2024-01-24T09:45:19.056Z,74.05
2024-01-24T09:47:48.419Z,73.80
2024-01-24T09:50:16.697Z,74.08
2024-01-24T09:52:47.178Z,74.49
2024-01-24T09:55:19.871Z,75.10
2024-01-24T09:57:47.697Z,75.16
2024-01-24T10:00:17.821Z,75.51
2024-01-24T10:02:47.682Z,75.66
2024-01-24T10:05:18.475Z,75.60
2024-01-24T10:07:46.870Z,75.08
2024-01-24T10:10:16.398Z,75.07
2024-01-24T10:12:45.031Z,75.08
2024-01-24T10:15:13.505Z,75.00
2024-01-24T10:17:43.718Z,74.68
2024-01-24T10:20:13.753Z,74.36
2024-01-24T10:22:43.239Z,74.28
2024-01-24T10:25:12.253Z,73.96
2024-01-24T10:27:40.260Z,74.23
2024-01-24T10:30:12.469Z,74.28
2024-01-24T10:32:40.687Z,74.08
2024-01-24T10:35:11.202Z,74.19
2024-01-24T10:37:39.197Z,73.94
2024-01-24T10:40:12.750Z,74.15
2024-01-24T10:42:42.870Z,74.25
2024-01-24T10:45:11.983Z,74.45
2024-01-24T10:47:41.532Z,74.91
2024-01-24T10:50:12.159Z,75.14
2024-01-24T10:52:41.637Z,75.24
2024-01-24T10:55:12.801Z,75.50
2024-01-24T10:57:42.192Z,75.89
2024-01-24T11:00:12.043Z,75.93
2024-01-24T11:02:42.282Z,75.58
2024-01-24T11:05:19.521Z,75.19
2024-01-24T11:07:55.087Z,75.03
2024-01-24T11:10:26.667Z,74.82
2024-01-24T11:12:54.715Z,74.51
2024-01-24T11:15:23.679Z,74.01
2024-01-24T11:18:26.419Z,73.35
2024-01-24T11:20:57.424Z,73.55
2024-01-24T11:23:41.794Z,73.46
2024-01-24T11:26:11.310Z,73.97
2024-01-24T11:28:39.366Z,73.87
2024-01-24T11:31:08.283Z,74.08
2024-01-24T11:33:36.300Z,73.88
2024-01-24T11:36:13.955Z,73.03
2024-01-24T11:38:41.507Z,73.26
2024-01-24T11:41:24.908Z,73.38
2024-01-24T11:43:52.512Z,73.50
2024-01-24T11:46:22.507Z,73.57
2024-01-24T11:48:50.503Z,73.67
2024-01-24T11:51:19.837Z,73.59
2024-01-24T11:53:47.513Z,73.73
2024-01-24T11:56:16.482Z,73.76
2024-01-24T11:58:44.358Z,74.51
2024-01-24T12:01:13.716Z,75.61
2024-01-24T12:03:48.020Z,77.24
2024-01-24T12:06:15.739Z,77.61
2024-01-24T12:08:48.196Z,78.45
2024-01-24T12:11:18.452Z,79.08
2024-01-24T12:13:47.100Z,79.87
2024-01-24T12:16:14.741Z,80.17
2024-01-24T12:18:43.550Z,80.66
2024-01-24T12:21:12.530Z,80.79
2024-01-24T12:23:39.554Z,81.24
2024-01-24T12:26:09.109Z,81.80
2024-01-24T12:28:36.897Z,81.96
2024-01-24T12:31:06.304Z,81.47
2024-01-24T12:33:36.618Z,81.50
2024-01-24T12:36:05.799Z,80.69
2024-01-24T12:38:35.852Z,80.33
2024-01-24T12:41:03.632Z,79.76
2024-01-24T12:43:33.269Z,79.68
2024-01-24T12:46:06.615Z,78.80
2024-01-24T12:48:34.501Z,78.48
2024-01-24T12:51:02.297Z,78.03
2024-01-24T12:53:30.138Z,77.47
2024-01-24T12:55:57.777Z,76.46
2024-01-24T12:58:25.408Z,76.34
2024-01-24T13:00:55.581Z,75.43
2024-01-24T13:03:24.295Z,75.25
2024-01-24T13:05:52.882Z,74.83
2024-01-24T13:08:21.767Z,74.31
2024-01-24T13:10:50.124Z,74.07
2024-01-24T13:13:18.175Z,74.07
2024-01-24T13:15:46.086Z,74.23
2024-01-24T13:18:15.135Z,73.48
2024-01-24T13:20:42.820Z,73.46
2024-01-24T13:23:10.360Z,73.34
2024-01-24T13:25:37.975Z,72.81
2024-01-24T13:28:06.737Z,72.79
2024-01-24T13:30:35.561Z,72.36
2024-01-24T13:33:03.291Z,72.19
2024-01-24T13:35:32.626Z,71.40
2024-01-24T13:38:00.659Z,71.02
2024-01-24T13:40:28.234Z,70.11
2024-01-24T13:42:55.866Z,69.68
2024-01-24T13:45:24.928Z,69.67
2024-01-24T13:47:52.512Z,69.26
2024-01-24T13:50:20.193Z,69.28
2024-01-24T13:52:49.112Z,68.24
2024-01-24T13:55:16.727Z,68.95
2024-01-24T13:57:45.185Z,68.37
2024-01-24T14:00:15.286Z,67.87
2024-01-24T14:02:44.186Z,68.46
2024-01-24T14:05:12.124Z,67.99
2024-01-24T14:07:43.638Z,68.19
2024-01-24T14:10:13.963Z,67.44
2024-01-24T14:12:41.829Z,67.71
2024-01-24T14:15:19.651Z,66.39
2024-01-24T14:17:55.885Z,65.94
2024-01-24T14:20:23.637Z,65.22
2024-01-24T14:22:51.276Z,64.97
2024-01-24T14:25:20.941Z,64.86
2024-01-24T14:27:48.524Z,64.61
2024-01-24T14:30:16.328Z,64.58
2024-01-24T14:32:43.921Z,64.57
2024-01-24T14:35:16.224Z,63.40
2024-01-24T14:37:43.978Z,63.66
2024-01-24T14:40:12.657Z,63.76
2024-01-24T14:42:41.701Z,63.38
2024-01-24T14:45:10.363Z,64.18
2024-01-24T14:47:38.104Z,63.77
2024-01-24T14:50:06.777Z,64.43
2024-01-24T14:52:34.513Z,64.09
2024-01-24T14:55:03.576Z,64.32
2024-01-24T14:57:33.084Z,64.34
2024-01-24T15:00:05.797Z,64.33
2024-01-24T15:02:34.274Z,64.76
2024-01-24T15:05:03.190Z,65.38
2024-01-24T15:07:30.840Z,65.20
2024-01-24T15:09:58.461Z,65.32
2024-01-24T15:12:28.269Z,65.38
2024-01-24T15:14:55.932Z,65.75
2024-01-24T15:17:24.839Z,66.10
2024-01-24T15:19:52.571Z,66.16
2024-01-24T15:22:22.477Z,66.26
2024-01-24T15:24:50.993Z,66.27
2024-01-24T15:27:18.723Z,66.59
2024-01-24T15:29:46.570Z,66.53
2024-01-24T15:32:14.116Z,66.92
2024-01-24T15:34:43.353Z,67.49
2024-01-24T15:37:11.226Z,67.27
2024-01-24T15:39:39.519Z,68.02
2024-01-24T15:42:12.174Z,67.99
2024-01-24T15:44:39.659Z,67.98
2024-01-24T15:47:08.857Z,67.94
2024-01-24T15:49:36.524Z,68.46
2024-01-24T15:52:06.103Z,68.94
2024-01-24T15:54:33.771Z,68.94
2024-01-24T15:57:01.280Z,68.71
2024-01-24T15:59:28.952Z,68.79
2024-01-24T16:01:56.617Z,68.73
2024-01-24T16:04:24.479Z,69.21
2024-01-24T16:06:53.650Z,68.88
2024-01-24T16:09:22.714Z,69.13
2024-01-24T16:11:50.290Z,69.32
2024-01-24T16:14:19.017Z,69.17
2024-01-24T16:16:47.208Z,68.98
2024-01-24T16:19:14.855Z,69.02
2024-01-24T16:21:44.571Z,69.01
2024-01-24T16:24:12.141Z,68.88
2024-01-24T16:26:40.978Z,69.75
2024-01-24T16:29:08.448Z,69.74
2024-01-24T16:31:35.918Z,70.40
2024-01-24T16:34:04.017Z,69.62
2024-01-24T16:36:31.852Z,69.25
2024-01-24T16:38:59.420Z,69.51
2024-01-24T16:41:27.043Z,69.13
2024-01-24T16:43:56.029Z,69.57
2024-01-24T16:46:23.634Z,69.28
2024-01-24T16:48:51.516Z,69.76
2024-01-24T16:51:19.350Z,70.31
2024-01-24T16:53:46.920Z,69.32
2024-01-24T16:56:14.524Z,70.28
2024-01-24T16:58:42.577Z,69.80
2024-01-24T17:01:11.636Z,69.46
2024-01-24T17:03:39.543Z,69.61
2024-01-24T17:06:09.053Z,69.61
2024-01-24T17:08:37.595Z,69.44
2024-01-24T17:11:05.611Z,69.12
2024-01-24T17:13:33.195Z,68.98
2024-01-24T17:16:02.844Z,68.84
2024-01-24T17:18:31.984Z,69.39
2024-01-24T17:20:59.598Z,68.70
2024-01-24T17:23:27.129Z,68.93
2024-01-24T17:25:54.750Z,67.90
2024-01-24T17:28:22.323Z,67.84
2024-01-24T17:30:49.930Z,67.91
2024-01-24T17:33:18.893Z,66.56
2024-01-24T17:35:47.913Z,66.83
2024-01-24T17:38:15.617Z,66.16
2024-01-24T17:40:43.139Z,66.46
2024-01-24T17:43:11.306Z,65.64
2024-01-24T17:45:38.998Z,66.12
2024-01-24T17:48:07.893Z,65.64
2024-01-24T17:50:37.218Z,65.46
2024-01-24T17:53:06.610Z,65.56
2024-01-24T17:55:34.409Z,65.87
2024-01-24T17:58:02.155Z,66.31
2024-01-24T18:00:29.829Z,66.68
2024-01-24T18:02:57.729Z,66.77
2024-01-24T18:05:25.440Z,65.90
2024-01-24T18:07:53.187Z,66.07
2024-01-24T18:10:22.492Z,65.48
2024-01-24T18:12:50.088Z,65.41
2024-01-24T18:15:18.193Z,65.56
2024-01-24T18:17:45.834Z,65.39
2024-01-24T18:20:13.668Z,65.64
2024-01-24T18:22:42.953Z,65.48
2024-01-24T18:25:10.536Z,66.40
2024-01-24T18:27:39.522Z,66.21
2024-01-24T18:30:13.784Z,66.00
2024-01-24T18:32:41.806Z,66.80
2024-01-24T18:35:10.908Z,66.44
2024-01-24T18:37:39.248Z,67.00
2024-01-24T18:40:10.752Z,66.84
2024-01-24T18:42:41.571Z,67.54
2024-01-24T18:45:13.023Z,67.03
2024-01-24T18:47:41.669Z,66.79
2024-01-24T18:50:11.036Z,66.47
2024-01-24T18:52:39.581Z,66.36
2024-01-24T18:55:11.647Z,66.38
2024-01-24T18:57:40.884Z,67.72
2024-01-24T19:00:10.102Z,66.55
2024-01-24T19:02:38.860Z,66.65
2024-01-24T19:05:10.195Z,66.54
2024-01-24T19:07:42.297Z,66.13
2024-01-24T19:10:11.519Z,66.76
2024-01-24T19:12:43.096Z,66.09
2024-01-24T19:15:18.979Z,66.44
2024-01-24T19:17:49.716Z,65.58
2024-01-24T19:20:19.072Z,65.44
2024-01-24T19:22:46.956Z,65.17
2024-01-24T19:25:14.598Z,65.67
2024-01-24T19:27:43.988Z,65.04
2024-01-24T19:30:12.738Z,65.54
2024-01-24T19:32:41.647Z,65.94
2024-01-24T19:35:10.651Z,65.21
2024-01-24T19:37:42.791Z,64.96
2024-01-24T19:40:21.029Z,65.74
2024-01-24T19:42:49.996Z,66.24
2024-01-24T19:45:17.820Z,65.93
2024-01-24T19:47:46.334Z,65.36
2024-01-24T19:50:13.936Z,65.28
2024-01-24T19:52:41.457Z,64.98
2024-01-24T19:55:10.261Z,65.42
2024-01-24T19:57:37.969Z,65.70
2024-01-24T20:00:12.502Z,65.60
2024-01-24T20:02:40.577Z,65.15
2024-01-24T20:07:46.668Z,65.12
2024-01-24T20:10:16.798Z,65.22
2024-01-24T21:44:54.890Z,69.19
2024-01-24T21:47:22.408Z,69.29
2024-01-24T21:49:50.289Z,69.69
2024-01-24T21:52:18.691Z,68.68
2024-01-24T21:54:50.684Z,68.41
2024-01-24T21:57:18.841Z,68.43
2024-01-24T21:59:46.678Z,68.79
2024-01-24T22:02:15.823Z,68.21
2024-01-24T22:04:44.140Z,68.20
2024-01-24T22:07:12.339Z,68.47
2024-01-24T22:09:40.085Z,68.20
2024-01-24T22:12:10.071Z,67.98
2024-01-24T22:14:37.664Z,68.00
2024-01-24T22:17:05.583Z,67.74
2024-01-24T22:19:34.586Z,68.67
2024-01-24T22:22:02.387Z,69.43
2024-01-24T22:24:30.100Z,68.91
2024-01-24T22:26:57.834Z,69.26
2024-01-24T22:29:25.457Z,69.49
2024-01-24T22:31:53.067Z,68.68
2024-01-24T22:34:20.804Z,68.69
2024-01-24T22:36:49.920Z,69.38
2024-01-24T22:39:17.480Z,69.96
2024-01-24T22:41:45.037Z,70.10
2024-01-24T22:44:12.805Z,69.96
2024-01-24T22:46:41.262Z,70.29
2024-01-24T22:49:09.237Z,70.84
2024-01-24T22:51:36.995Z,70.29
2024-01-24T22:54:07.132Z,70.58
2024-01-24T22:56:34.686Z,71.14
2024-01-24T22:59:02.205Z,71.27
2024-01-24T23:01:29.876Z,70.79
2024-01-24T23:03:58.044Z,70.40
2024-01-24T23:06:25.768Z,70.67
2024-01-24T23:08:53.353Z,71.25
2024-01-24T23:11:22.460Z,71.35
2024-01-24T23:13:50.062Z,71.75
2024-01-24T23:16:17.828Z,71.39
2024-01-24T23:18:45.586Z,70.97
2024-01-24T23:21:13.218Z,71.57
2024-01-24T23:23:41.329Z,71.44
2024-01-24T23:26:08.855Z,71.68
2024-01-24T23:28:37.862Z,71.43
2024-01-24T23:31:05.918Z,71.69
2024-01-24T23:33:35.671Z,72.01
2024-01-24T23:36:05.029Z,71.88
2024-01-24T23:38:32.736Z,71.51
2024-01-24T23:41:00.438Z,71.95
2024-01-24T23:43:28.029Z,71.70
2024-01-24T23:45:57.137Z,71.89
2024-01-24T23:48:24.986Z,71.55
2024-01-24T23:50:52.934Z,71.46
2024-01-24T23:53:20.598Z,71.64
2024-01-24T23:55:48.747Z,71.06
2024-01-24T23:58:16.455Z,71.58
